createdAt,value
2023-04-11T00:08:51.360Z,11.48
2023-04-11T00:23:54.344Z,13.35
2023-04-11T00:38:58.741Z,11.27
2023-04-11T00:54:01.741Z,12.23
2023-04-11T01:09:05.140Z,11.13
2023-04-11T01:24:07.943Z,12.50
2023-04-11T01:39:10.511Z,12.00
2023-04-11T01:54:12.504Z,13.23
2023-04-11T02:09:14.520Z,13.88
2023-04-11T02:24:16.404Z,13.13
2023-04-11T02:39:20.237Z,13.23
2023-04-11T02:54:22.232Z,12.88
2023-04-11T03:09:24.209Z,14.10
2023-04-11T03:24:26.249Z,12.82
2023-04-11T03:39:28.141Z,13.68
2023-04-11T03:54:30.220Z,14.35
2023-04-11T04:09:32.214Z,13.25
2023-04-11T04:24:39.683Z,11.35
2023-04-11T04:39:42.359Z,11.82
2023-04-11T04:54:44.417Z,13.27
2023-04-11T05:09:46.644Z,19.10
2023-04-11T05:24:48.579Z,20.42
2023-04-11T05:39:50.662Z,18.70
2023-04-11T05:54:52.709Z,18.67
2023-04-11T06:09:55.101Z,14.98
2023-04-11T06:24:57.104Z,14.50
2023-04-11T06:40:02.459Z,11.02
2023-04-11T06:55:05.449Z,11.25
2023-04-11T07:10:08.128Z,11.02
2023-04-11T07:25:10.769Z,9.63
2023-04-11T07:40:14.531Z,8.60
2023-04-11T07:55:16.542Z,8.32
2023-04-11T08:10:18.571Z,7.13
2023-04-11T08:25:23.146Z,6.35
2023-04-11T08:40:26.974Z,6.47
2023-04-11T08:55:29.605Z,5.68
2023-04-11T09:10:31.742Z,5.03
2023-04-11T09:25:44.737Z,4.60
2023-04-11T09:40:46.667Z,4.30
2023-04-11T09:55:48.727Z,3.65
2023-04-11T10:10:53.231Z,4.55
2023-04-11T10:26:01.567Z,3.78
2023-04-11T10:41:28.427Z,2.95
2023-04-11T10:56:52.880Z,2.80
2023-04-11T11:12:14.904Z,2.28
2023-04-11T11:27:21.835Z,3.00
2023-04-11T11:42:23.945Z,3.20
2023-04-11T11:57:26.278Z,3.45
2023-04-11T12:12:35.301Z,3.17
2023-04-11T12:27:37.967Z,2.87
2023-04-11T12:42:53.295Z,3.13
2023-04-11T12:57:57.734Z,3.90
2023-04-11T13:13:08.425Z,3.78
2023-04-11T13:28:19.610Z,4.27
2023-04-11T13:43:22.096Z,4.50
2023-04-11T13:58:24.058Z,4.40
2023-04-11T14:13:26.216Z,5.10
2023-04-11T14:28:28.245Z,5.28
2023-04-11T14:43:30.251Z,5.10
2023-04-11T14:58:32.939Z,5.70
2023-04-11T15:13:35.172Z,5.28
2023-04-11T15:28:39.831Z,6.25
2023-04-11T15:43:43.099Z,5.50
2023-04-11T15:58:45.142Z,6.25
2023-04-11T16:13:47.140Z,5.95
2023-04-11T16:28:49.500Z,5.78
2023-04-11T16:43:51.997Z,5.50
2023-04-11T16:58:53.998Z,6.00
2023-04-11T17:13:56.679Z,6.05
2023-04-11T17:28:59.138Z,5.95
2023-04-11T17:44:01.182Z,6.55
2023-04-11T17:59:03.236Z,5.80
2023-04-11T18:14:05.331Z,6.43
2023-04-11T18:29:07.762Z,7.10
2023-04-11T18:44:11.950Z,8.27
2023-04-11T18:59:18.486Z,8.57
2023-04-11T19:14:21.733Z,9.52
2023-04-11T19:29:24.998Z,10.07
2023-04-11T19:44:27.548Z,10.98
2023-04-11T19:59:30.276Z,10.63
2023-04-11T20:14:32.622Z,12.35
2023-04-11T20:29:34.695Z,12.02
2023-04-11T20:44:37.121Z,9.68
2023-04-11T20:59:39.594Z,9.15
2023-04-11T21:14:41.766Z,8.88
2023-04-11T21:29:43.721Z,10.00
2023-04-11T21:44:45.879Z,15.65
2023-04-11T21:59:47.945Z,10.73
2023-04-11T22:14:52.941Z,8.73
2023-04-11T22:29:57.756Z,8.48
2023-04-11T22:44:59.782Z,7.80
2023-04-11T23:00:04.291Z,8.13
2023-04-11T23:15:06.796Z,9.50
2023-04-11T23:30:11.957Z,11.55
2023-04-11T23:45:15.215Z,9.95
